Terminal Aerodrome Forecast
Issued by NWS

Home | Current Version | Previous Version | Text Only | Print | Product List | Glossary On
Versions: 1 2 3 4 5 6 7 8 9 10 11 12 13 14 15
000
FTUS44 KTSA 271123
TAFXNA
TAF
KXNA 271123Z 2712/2812 20006KT P6SM BKN025
     FM271500 19011KT P6SM OVC015
     FM271800 18013G20KT P6SM OVC025
     FM272100 19018G26KT P6SM OVC050
      TEMPO 2802/2806 VRB30G40KT 1SM TSRA BKN015CB
     FM280600 21005KT 4SM BR OVC007
     FM280900 21005KT 1SM BR OVC004=

USA.gov is the U.S. government's official web portal to all federal, state and local government web resources and services.